createdAt,value
2023-05-16T06:50:29.422Z,995.07
2023-05-16T06:51:29.521Z,995.09
2023-05-16T06:52:29.392Z,995.17
2023-05-16T06:53:31.017Z,995.17
2023-05-16T06:54:30.816Z,995.18
2023-05-16T06:55:30.722Z,995.12
2023-05-16T06:56:30.591Z,995.18
2023-05-16T06:57:30.889Z,995.15
2023-05-16T06:58:30.473Z,995.12
2023-05-16T06:59:30.451Z,995.15
2023-05-16T07:00:31.187Z,995.17
2023-05-16T07:01:30.574Z,995.10
2023-05-16T07:02:30.525Z,995.16
2023-05-16T07:03:30.860Z,995.20
2023-05-16T07:04:30.475Z,995.18
2023-05-16T07:07:34.625Z,995.25
2023-05-16T07:08:34.763Z,995.22
2023-05-16T07:09:34.530Z,995.24
2023-05-16T07:10:35.964Z,995.09
2023-05-16T07:11:35.664Z,995.22
2023-05-16T07:12:35.711Z,995.23
2023-05-16T07:13:36.219Z,995.22
2023-05-16T07:14:36.627Z,995.22
2023-05-16T07:15:35.832Z,995.23
2023-05-16T07:16:35.604Z,995.19
2023-05-16T07:17:35.685Z,995.29
2023-05-16T07:18:35.696Z,995.24
2023-05-16T07:19:35.596Z,995.22
2023-05-16T07:20:35.619Z,995.19
2023-05-16T07:21:35.586Z,995.22
2023-05-16T07:22:35.533Z,995.25
2023-05-16T07:23:35.573Z,995.25
2023-05-16T07:24:35.987Z,995.23
2023-05-16T07:25:35.569Z,995.20
2023-05-16T07:26:35.655Z,995.21
2023-05-16T07:27:35.597Z,995.19
2023-05-16T07:28:35.462Z,995.27
2023-05-16T07:29:35.509Z,995.26
2023-05-16T07:30:35.488Z,995.28
2023-05-16T07:31:35.464Z,995.30
2023-05-16T07:34:39.584Z,995.31
2023-05-16T07:35:39.649Z,995.32
2023-05-16T07:36:39.666Z,995.35
2023-05-16T07:37:39.700Z,995.30
2023-05-16T07:38:40.769Z,995.31
2023-05-16T07:39:40.795Z,995.41
2023-05-16T07:40:40.728Z,995.39
2023-05-16T07:41:41.093Z,995.47
2023-05-16T07:42:40.698Z,995.45
2023-05-16T07:43:40.709Z,995.38
2023-05-16T07:44:40.722Z,995.41
2023-05-16T07:45:40.703Z,995.45
2023-05-16T07:46:40.766Z,995.40
2023-05-16T07:47:40.652Z,995.51
2023-05-16T07:48:40.595Z,995.49
2023-05-16T07:49:40.618Z,995.38
2023-05-16T07:50:40.887Z,995.41
2023-05-16T07:51:40.634Z,995.45
2023-05-16T07:52:40.627Z,995.39
2023-05-16T07:53:40.566Z,995.51
2023-05-16T07:54:40.559Z,995.52
2023-05-16T07:55:40.561Z,995.54
2023-05-16T07:56:40.553Z,995.56
2023-05-16T07:57:40.569Z,995.53
2023-05-16T07:58:40.593Z,995.58
2023-05-16T07:59:40.562Z,995.63
2023-05-16T08:00:40.514Z,995.65
2023-05-16T08:01:40.507Z,995.68
2023-05-16T08:02:40.603Z,995.67
2023-05-16T08:03:40.603Z,995.65
2023-05-16T08:04:40.472Z,995.69
2023-05-16T08:05:40.458Z,995.79
2023-05-16T08:06:40.457Z,995.76
2023-05-16T08:07:40.471Z,995.72
2023-05-16T08:08:40.418Z,995.75
2023-05-16T08:09:40.500Z,995.77
2023-05-16T08:10:40.417Z,995.77
2023-05-16T08:11:40.420Z,995.80
2023-05-16T08:12:40.777Z,995.80
2023-05-16T08:13:40.374Z,995.87
2023-05-16T08:14:40.428Z,995.77
2023-05-16T08:15:40.413Z,995.77
2023-05-16T08:16:40.500Z,995.81
2023-05-16T08:17:40.378Z,995.82
2023-05-16T08:18:40.398Z,995.81
2023-05-16T08:19:40.322Z,995.81
2023-05-16T08:20:40.352Z,995.78
2023-05-16T08:21:40.286Z,995.82
2023-05-16T08:22:40.275Z,995.83
2023-05-16T08:23:40.373Z,995.80
2023-05-16T08:24:40.283Z,995.82
2023-05-16T08:25:40.341Z,995.88
2023-05-16T08:26:40.311Z,995.83
2023-05-16T08:27:40.289Z,995.88
2023-05-16T08:28:41.271Z,995.86
2023-05-16T08:29:40.378Z,995.90
2023-05-16T08:30:42.442Z,995.80
2023-05-16T08:31:41.547Z,995.83
2023-05-16T08:32:40.294Z,995.85
2023-05-16T08:33:40.187Z,995.88
2023-05-16T08:34:40.233Z,995.89
2023-05-16T08:35:40.301Z,995.98
2023-05-16T08:36:40.349Z,995.94
2023-05-16T08:37:40.187Z,995.90
2023-05-16T08:38:40.134Z,995.93
2023-05-16T08:39:40.115Z,996.00
2023-05-16T08:40:40.139Z,995.95
2023-05-16T08:41:40.173Z,996.00
2023-05-16T08:42:40.170Z,996.04
2023-05-16T08:43:40.421Z,995.99
2023-05-16T08:44:40.109Z,995.99
2023-05-16T08:45:40.143Z,996.08
2023-05-16T08:46:40.816Z,996.02
2023-05-16T08:47:40.405Z,996.03
2023-05-16T08:48:40.057Z,996.00
2023-05-16T08:49:40.196Z,996.00
2023-05-16T08:50:40.069Z,996.01
2023-05-16T08:51:40.041Z,996.08
2023-05-16T08:52:40.660Z,995.97
2023-05-16T08:53:40.008Z,996.10
2023-05-16T08:54:40.072Z,996.09
2023-05-16T08:56:12.558Z,996.09
2023-05-16T08:56:40.230Z,996.14
2023-05-16T08:57:40.361Z,996.00
2023-05-16T08:58:39.999Z,996.18
2023-05-16T08:59:40.744Z,996.06
2023-05-16T09:00:39.992Z,996.10
2023-05-16T09:01:40.086Z,996.06
2023-05-16T09:02:39.936Z,996.16
2023-05-16T09:03:39.930Z,996.10
2023-05-16T09:04:39.873Z,996.06
2023-05-16T09:05:39.953Z,996.10
2023-05-16T09:06:39.840Z,996.12
2023-05-16T09:07:39.866Z,996.04
2023-05-16T09:08:39.888Z,996.11
2023-05-16T09:09:39.883Z,996.07
2023-05-16T09:10:39.884Z,996.10
2023-05-16T09:11:39.857Z,996.13
2023-05-16T09:12:39.836Z,996.09
2023-05-16T09:14:12.514Z,996.17
2023-05-16T09:14:39.981Z,996.17
2023-05-16T09:15:40.023Z,996.15
2023-05-16T09:16:40.356Z,996.13
2023-05-16T09:17:43.103Z,996.24
2023-05-16T09:18:41.101Z,996.16
2023-05-16T09:19:39.932Z,996.04
2023-05-16T09:20:39.774Z,996.17
2023-05-16T09:21:39.751Z,996.10
2023-05-16T09:22:39.700Z,996.08
2023-05-16T09:23:39.931Z,996.10
2023-05-16T09:24:39.653Z,996.10
2023-05-16T09:25:39.717Z,996.00
2023-05-16T09:26:39.702Z,996.09
2023-05-16T09:27:39.662Z,996.00
2023-05-16T09:29:12.573Z,996.09
2023-05-16T09:29:40.208Z,996.07
2023-05-16T09:30:39.804Z,996.04
2023-05-16T09:31:39.638Z,996.02
2023-05-16T09:32:39.653Z,996.04
2023-05-16T09:34:12.251Z,995.98
2023-05-16T09:34:39.820Z,996.00
2023-05-16T09:35:45.519Z,995.98
2023-05-16T09:36:43.798Z,995.97
2023-05-16T09:37:40.095Z,996.01
2023-05-16T09:38:39.551Z,996.08
2023-05-16T09:39:39.532Z,996.10
2023-05-16T09:40:39.604Z,996.05
2023-05-16T09:41:40.836Z,996.03
2023-05-16T09:42:39.521Z,996.00
2023-05-16T09:43:41.119Z,996.08
2023-05-16T09:44:40.350Z,996.05
2023-05-16T09:46:12.540Z,996.06
2023-05-16T09:46:39.811Z,995.99
2023-05-16T09:47:39.626Z,996.01
2023-05-16T09:48:39.456Z,995.95
2023-05-16T09:49:39.625Z,995.86
2023-05-16T09:50:39.508Z,995.85
2023-05-16T09:51:39.417Z,995.84
2023-05-16T09:52:39.386Z,995.83
2023-05-16T09:53:39.489Z,995.87
2023-05-16T09:54:39.424Z,995.82
2023-05-16T09:55:39.412Z,995.82
2023-05-16T09:56:39.489Z,995.88
2023-05-16T09:57:39.386Z,995.93
2023-05-16T09:58:39.344Z,995.86
2023-05-16T09:59:39.630Z,995.99
2023-05-16T10:00:39.358Z,995.94
2023-05-16T10:01:39.313Z,995.89
2023-05-16T10:02:39.384Z,995.83
2023-05-16T10:03:39.431Z,995.83
2023-05-16T10:04:39.334Z,995.84
2023-05-16T10:05:39.619Z,995.90
2023-05-16T10:06:39.262Z,995.84
2023-05-16T10:07:39.826Z,995.86
2023-05-16T10:08:39.437Z,995.87
2023-05-16T10:09:39.290Z,995.82
2023-05-16T10:10:39.261Z,995.85
2023-05-16T10:11:39.263Z,995.86
2023-05-16T10:12:39.429Z,995.92
2023-05-16T10:13:39.198Z,995.89
2023-05-16T10:14:39.727Z,995.77
2023-05-16T10:15:39.311Z,995.76
2023-05-16T10:16:39.224Z,995.82
2023-05-16T10:17:39.281Z,995.84
2023-05-16T10:18:39.288Z,995.82
2023-05-16T10:19:39.199Z,995.84
2023-05-16T10:20:39.133Z,995.82
2023-05-16T10:21:39.162Z,995.83
2023-05-16T10:22:39.084Z,995.81
2023-05-16T10:23:39.137Z,995.79
2023-05-16T10:24:39.472Z,995.74
2023-05-16T10:25:39.453Z,995.76
2023-05-16T10:26:39.442Z,995.74
2023-05-16T10:27:39.014Z,995.72
2023-05-16T10:28:39.492Z,995.77
2023-05-16T10:29:52.918Z,995.71
2023-05-16T10:30:40.106Z,995.59
2023-05-16T10:31:39.035Z,995.74
2023-05-16T10:32:40.626Z,995.65
2023-05-16T10:33:39.015Z,995.76
2023-05-16T10:34:40.393Z,995.73
2023-05-16T10:35:38.965Z,995.71
2023-05-16T10:36:39.140Z,995.66
2023-05-16T10:37:39.285Z,995.75
2023-05-16T10:38:39.002Z,995.74
2023-05-16T10:39:39.048Z,995.78
2023-05-16T10:40:38.985Z,995.82
2023-05-16T10:41:39.024Z,995.73
2023-05-16T10:42:38.861Z,995.79
2023-05-16T10:43:38.921Z,995.80
2023-05-16T10:44:39.317Z,995.71
2023-05-16T10:45:38.935Z,995.74
2023-05-16T10:46:38.926Z,995.76
2023-05-16T10:47:38.895Z,995.80
2023-05-16T10:48:39.124Z,995.76
2023-05-16T10:49:38.827Z,995.81
2023-05-16T10:50:38.874Z,995.83
2023-05-16T10:51:39.251Z,995.88
2023-05-16T10:52:39.205Z,995.79
2023-05-16T10:53:39.439Z,995.83
2023-05-16T10:55:12.718Z,995.82
2023-05-16T10:55:39.197Z,995.84
2023-05-16T10:56:38.900Z,995.87
2023-05-16T10:57:38.787Z,995.86
2023-05-16T10:58:39.249Z,995.85
2023-05-16T10:59:38.874Z,995.81
2023-05-16T11:00:38.733Z,995.84
2023-05-16T11:01:38.744Z,995.80
2023-05-16T11:02:38.841Z,995.84
2023-05-16T11:03:39.024Z,995.86
2023-05-16T11:04:38.961Z,995.91
2023-05-16T11:05:39.456Z,995.79
2023-05-16T11:06:39.287Z,995.94
2023-05-16T11:07:38.634Z,995.91
2023-05-16T11:08:38.917Z,995.83
2023-05-16T11:09:38.621Z,995.89
2023-05-16T11:10:38.655Z,995.92
2023-05-16T11:11:38.716Z,995.89
2023-05-16T11:12:38.676Z,995.97
2023-05-16T11:13:38.616Z,996.02
2023-05-16T11:14:38.662Z,996.02
2023-05-16T11:15:38.557Z,995.96
2023-05-16T11:16:38.796Z,995.96
2023-05-16T11:17:40.618Z,995.99
2023-05-16T11:18:38.731Z,995.97
2023-05-16T11:19:38.611Z,995.95
2023-05-16T11:20:38.915Z,996.00
2023-05-16T11:21:38.697Z,996.04
2023-05-16T11:22:38.555Z,995.92
2023-05-16T11:23:39.117Z,995.87
2023-05-16T11:24:38.455Z,995.81
2023-05-16T11:25:39.245Z,995.92
2023-05-16T11:26:38.484Z,995.91
2023-05-16T11:27:38.449Z,995.91
2023-05-16T11:28:38.491Z,995.87
2023-05-16T11:29:38.784Z,995.84
2023-05-16T11:30:38.454Z,995.83
2023-05-16T11:31:38.455Z,995.87
2023-05-16T11:32:38.659Z,995.87
2023-05-16T11:33:38.700Z,995.85
2023-05-16T11:34:38.557Z,995.90
2023-05-16T11:35:38.434Z,995.84
2023-05-16T11:36:38.390Z,995.93
2023-05-16T11:37:38.370Z,995.93
2023-05-16T11:38:38.313Z,996.00
2023-05-16T11:39:38.349Z,996.01
2023-05-16T11:40:39.365Z,995.96
2023-05-16T11:43:49.900Z,995.91
2023-05-16T11:44:58.625Z,995.85
2023-05-16T11:45:58.636Z,995.85
2023-05-16T11:46:50.035Z,995.86
2023-05-16T11:47:57.635Z,995.88
2023-05-16T11:50:41.735Z,995.80
2023-05-16T11:51:49.607Z,995.76
2023-05-16T11:52:49.377Z,995.93
2023-05-16T11:53:49.866Z,995.91
2023-05-16T11:55:28.301Z,995.96
2023-05-16T11:56:15.401Z,995.98
2023-05-16T11:57:09.424Z,995.93
2023-05-16T11:58:15.472Z,995.86
2023-05-16T11:59:16.898Z,995.99
2023-05-16T12:00:15.434Z,995.91
2023-05-16T12:01:15.375Z,995.90
2023-05-16T12:01:43.026Z,995.93
2023-05-16T12:03:15.431Z,995.89
2023-05-16T12:03:43.287Z,995.96
2023-05-16T12:05:16.658Z,995.92
2023-05-16T12:06:15.309Z,995.98
2023-05-16T12:07:15.274Z,995.98
2023-05-16T12:08:15.309Z,996.07
2023-05-16T12:09:18.555Z,995.95
2023-05-16T12:10:15.472Z,995.93
2023-05-16T12:10:42.914Z,995.84
2023-05-16T12:12:15.232Z,995.78
2023-05-16T12:13:16.800Z,995.90
2023-05-16T12:14:16.691Z,995.85
2023-05-16T12:15:15.264Z,995.81
2023-05-16T12:16:15.327Z,995.86
2023-05-16T12:17:15.187Z,995.90
2023-05-16T12:17:42.920Z,995.92
2023-05-16T12:19:16.541Z,995.87
2023-05-16T12:20:15.205Z,995.90
2023-05-16T12:21:15.244Z,995.91
2023-05-16T12:22:15.319Z,996.00
2023-05-16T12:22:42.912Z,996.02
2023-05-16T12:24:15.280Z,996.01
2023-05-16T12:24:42.942Z,995.95
2023-05-16T12:26:15.191Z,996.03
2023-05-16T12:26:42.978Z,996.00
2023-05-16T12:28:18.574Z,996.05
2023-05-16T12:28:43.110Z,996.05
2023-05-16T12:30:15.089Z,996.01
2023-05-16T12:31:29.365Z,995.98
2023-05-16T12:32:16.331Z,996.02
2023-05-16T12:34:57.626Z,995.98
2023-05-16T12:36:05.403Z,995.89
2023-05-16T12:37:06.486Z,995.86
2023-05-16T12:38:31.460Z,995.89
2023-05-16T12:38:59.078Z,995.84
2023-05-16T12:40:31.425Z,995.83
2023-05-16T12:42:18.866Z,995.98
2023-05-16T12:43:26.604Z,995.96
2023-05-16T12:44:26.512Z,995.91
2023-05-16T12:45:26.537Z,995.92
2023-05-16T12:46:20.161Z,995.95
2023-05-16T12:47:52.572Z,995.86
2023-05-16T12:48:52.505Z,995.91
2023-05-16T12:49:53.217Z,996.00
2023-05-16T12:50:48.822Z,995.98
2023-05-16T12:51:52.735Z,995.90
2023-05-16T12:52:20.008Z,995.86
2023-05-16T12:57:30.388Z,996.06
2023-05-16T13:00:20.026Z,996.07
2023-05-16T13:01:27.811Z,996.12
2023-05-16T13:02:29.247Z,996.14
2023-05-16T13:03:27.797Z,996.15
2023-05-16T13:04:29.926Z,996.06
2023-05-16T13:05:28.910Z,996.13
2023-05-16T13:06:27.677Z,996.13
2023-05-16T13:09:12.178Z,996.12
2023-05-16T13:11:39.018Z,996.08
2023-05-16T13:12:46.683Z,996.10
2023-05-16T13:13:39.016Z,996.11
2023-05-16T13:14:41.909Z,996.05
2023-05-16T13:16:12.687Z,996.08
2023-05-16T13:16:40.616Z,996.11
2023-05-16T13:17:40.317Z,996.12
2023-05-16T13:18:40.696Z,996.16
2023-05-16T13:20:13.906Z,996.20
2023-05-16T13:20:40.607Z,996.11
2023-05-16T13:21:40.349Z,996.13
2023-05-16T13:22:40.835Z,996.20
2023-05-16T13:24:14.139Z,996.17
2023-05-16T13:24:40.297Z,996.16
2023-05-16T13:25:40.264Z,996.16
2023-05-16T13:27:12.604Z,996.18
2023-05-16T13:27:40.449Z,996.17
2023-05-16T13:28:40.373Z,996.13
2023-05-16T13:29:40.231Z,996.20
2023-05-16T13:30:40.023Z,996.25
2023-05-16T13:33:55.081Z,996.18
2023-05-16T13:35:02.848Z,996.14
2023-05-16T13:35:55.178Z,996.15
2023-05-16T13:36:55.230Z,996.20
2023-05-16T13:37:56.541Z,996.23
2023-05-16T13:39:28.710Z,996.18
2023-05-16T13:39:56.432Z,996.17
2023-05-16T13:40:56.492Z,996.18
2023-05-16T13:41:56.396Z,996.12
2023-05-16T13:42:56.171Z,996.15
2023-05-16T13:43:56.200Z,996.17
2023-05-16T13:44:56.145Z,996.12
2023-05-16T13:45:56.172Z,996.12
2023-05-16T13:46:56.154Z,996.13
2023-05-16T13:48:28.908Z,996.10
2023-05-16T13:48:56.374Z,996.15
2023-05-16T13:52:11.261Z,996.02
2023-05-16T13:53:19.918Z,996.05
2023-05-16T13:54:19.104Z,996.08
2023-05-16T13:55:18.965Z,996.12
2023-05-16T13:56:11.312Z,996.07
2023-05-16T13:57:11.216Z,996.15
2023-05-16T13:58:11.416Z,996.07
2023-05-16T13:59:14.248Z,996.12
2023-05-16T14:00:31.680Z,996.18
2023-05-16T14:01:12.336Z,996.18
2023-05-16T14:02:11.637Z,996.17
2023-05-16T14:03:11.310Z,996.19
2023-05-16T14:04:45.789Z,996.12
2023-05-16T14:05:12.842Z,996.14
2023-05-16T14:06:12.883Z,996.17
2023-05-16T14:07:12.600Z,996.11
2023-05-16T14:08:12.343Z,996.13
2023-05-16T14:09:12.474Z,996.13
2023-05-16T14:10:12.389Z,996.13
2023-05-16T14:11:12.485Z,996.13
2023-05-16T14:12:12.329Z,996.04
2023-05-16T14:13:12.353Z,996.13
2023-05-16T14:14:12.373Z,996.13
2023-05-16T14:15:12.369Z,996.03
2023-05-16T14:16:12.327Z,996.08
2023-05-16T14:17:12.341Z,996.04
2023-05-16T14:20:28.884Z,996.05
2023-05-16T14:23:50.429Z,996.07
2023-05-16T14:24:50.384Z,995.94
2023-05-16T14:25:50.483Z,995.95
2023-05-16T14:26:54.256Z,996.10
2023-05-16T14:28:25.352Z,996.03
2023-05-16T14:29:25.439Z,996.04
2023-05-16T14:30:24.034Z,996.03
2023-05-16T14:31:24.208Z,996.03
2023-05-16T14:32:24.127Z,996.14
2023-05-16T14:33:25.047Z,996.08
2023-05-16T14:33:51.661Z,996.04
2023-05-16T14:35:24.028Z,996.13
2023-05-16T14:36:24.203Z,996.04
2023-05-16T14:37:24.124Z,995.96
2023-05-16T14:37:51.934Z,996.09
2023-05-16T14:38:51.833Z,996.03
2023-05-16T14:39:51.454Z,996.01
2023-05-16T14:41:23.938Z,996.14
2023-05-16T14:42:25.255Z,996.09
2023-05-16T14:43:25.255Z,996.12
2023-05-16T14:43:51.503Z,996.10
2023-05-16T14:44:51.680Z,996.13
2023-05-16T14:45:51.525Z,996.19
2023-05-16T14:49:03.966Z,996.20
2023-05-16T14:50:03.993Z,996.13
2023-05-16T14:51:11.608Z,996.17
2023-05-16T14:52:12.789Z,996.20
2023-05-16T14:53:04.164Z,996.15
2023-05-16T14:54:11.579Z,996.29
2023-05-16T14:55:37.774Z,996.20
2023-05-16T14:56:39.863Z,996.28
2023-05-16T14:57:05.328Z,996.23
2023-05-16T14:58:37.639Z,996.27
2023-05-16T14:59:38.503Z,996.34
2023-05-16T15:00:05.470Z,996.35
2023-05-16T15:03:19.895Z,996.21
2023-05-16T15:04:27.533Z,996.32
2023-05-16T15:05:20.013Z,996.35
2023-05-16T15:06:54.711Z,996.31
2023-05-16T15:07:21.521Z,996.37
2023-05-16T15:08:53.512Z,996.31
2023-05-16T15:09:53.434Z,996.36
2023-05-16T15:10:54.848Z,996.36
2023-05-16T15:11:53.734Z,996.33
2023-05-16T15:12:21.137Z,996.49
2023-05-16T15:13:20.916Z,996.56
2023-05-16T15:14:54.742Z,996.42
2023-05-16T15:15:21.268Z,996.43
2023-05-16T15:16:53.617Z,996.38
2023-05-16T15:17:20.970Z,996.35
2023-05-16T15:18:21.737Z,996.40
2023-05-16T15:19:55.438Z,996.33
2023-05-16T15:20:22.652Z,996.39
2023-05-16T15:21:22.024Z,996.56
2023-05-16T15:22:53.292Z,996.58
2023-05-16T15:23:53.551Z,996.57
2023-05-16T15:24:21.048Z,996.55
2023-05-16T15:25:20.996Z,996.54
2023-05-16T15:30:29.837Z,996.36
2023-05-16T15:31:37.828Z,996.37
2023-05-16T15:32:37.547Z,996.41
2023-05-16T15:33:38.699Z,996.39
2023-05-16T15:34:29.833Z,996.35
2023-05-16T15:35:38.855Z,996.44
2023-05-16T15:36:29.815Z,996.44
2023-05-16T15:37:32.390Z,996.41
2023-05-16T15:39:05.992Z,996.47
2023-05-16T15:39:31.386Z,996.48
2023-05-16T15:40:31.167Z,996.52
2023-05-16T15:42:10.849Z,996.51
2023-05-16T15:42:32.216Z,996.46
2023-05-16T15:45:45.692Z,996.54
2023-05-16T15:46:54.263Z,996.63
2023-05-16T15:47:54.279Z,996.61
2023-05-16T15:48:45.478Z,996.58
2023-05-16T15:49:45.435Z,996.60
2023-05-16T15:50:45.479Z,996.61
2023-05-16T15:51:54.419Z,996.69
2023-05-16T15:54:34.432Z,996.71
2023-05-16T15:55:42.096Z,996.77
2023-05-16T15:56:34.481Z,996.61
2023-05-16T16:02:20.535Z,996.54
2023-05-16T16:03:28.347Z,996.55
2023-05-16T16:04:22.556Z,996.62
2023-05-16T16:05:20.574Z,996.64
2023-05-16T16:06:20.695Z,996.65
2023-05-16T16:07:29.372Z,996.64
2023-05-16T16:08:23.214Z,996.61
2023-05-16T16:09:49.362Z,996.65
2023-05-16T16:10:22.664Z,996.62
2023-05-16T16:11:22.973Z,996.68
2023-05-16T16:12:55.164Z,996.50
2023-05-16T16:13:21.780Z,996.59
2023-05-16T16:14:54.231Z,996.50
2023-05-16T16:15:21.927Z,996.56
2023-05-16T16:16:22.153Z,996.57
2023-05-16T16:17:21.717Z,996.55
2023-05-16T16:18:54.206Z,996.57
2023-05-16T16:19:54.279Z,996.63
2023-05-16T16:20:22.804Z,996.62
2023-05-16T16:21:55.114Z,996.56
2023-05-16T16:22:54.110Z,996.58
2023-05-16T16:25:38.550Z,996.57
2023-05-16T16:26:46.587Z,996.64
2023-05-16T16:28:12.450Z,996.55
2023-05-16T16:28:39.983Z,996.64
2023-05-16T16:30:14.984Z,996.58
2023-05-16T16:32:52.418Z,996.67
2023-05-16T16:34:00.730Z,996.68
2023-05-16T16:34:52.366Z,996.69
2023-05-16T16:37:19.295Z,996.65
2023-05-16T16:38:19.447Z,996.71
2023-05-16T16:39:29.408Z,996.67
2023-05-16T16:40:27.013Z,996.64
2023-05-16T16:41:53.059Z,996.66
2023-05-16T16:42:52.993Z,996.77
2023-05-16T16:43:54.255Z,996.75
2023-05-16T16:46:56.906Z,996.75
2023-05-16T16:47:57.883Z,996.84
2023-05-16T16:48:57.096Z,996.74
2023-05-16T16:50:31.130Z,996.79
2023-05-16T16:50:59.024Z,996.75
2023-05-16T16:51:58.245Z,996.78
2023-05-16T16:52:58.539Z,996.80
2023-05-16T16:54:31.916Z,996.75
2023-05-16T16:54:58.390Z,996.81
2023-05-16T16:55:58.130Z,996.83
2023-05-16T16:56:58.500Z,996.78
2023-05-16T16:57:58.312Z,996.81
2023-05-16T16:58:58.500Z,996.79
2023-05-16T16:59:58.407Z,996.76
2023-05-16T17:01:01.172Z,996.76
2023-05-16T17:01:58.116Z,996.78
2023-05-16T17:03:31.919Z,996.73
2023-05-16T17:03:58.238Z,996.74
2023-05-16T17:04:58.320Z,996.71
2023-05-16T17:06:30.570Z,996.76
2023-05-16T17:06:59.261Z,996.73
2023-05-16T17:07:58.746Z,996.74
2023-05-16T17:08:58.513Z,996.76
2023-05-16T17:09:58.120Z,996.77
2023-05-16T17:10:59.444Z,996.77
2023-05-16T17:15:08.463Z,996.82
2023-05-16T17:16:16.150Z,996.81
2023-05-16T17:17:10.108Z,996.82
2023-05-16T17:18:10.760Z,996.80
2023-05-16T17:19:10.499Z,996.85
2023-05-16T17:20:42.196Z,996.87
2023-05-16T17:21:10.835Z,996.84
2023-05-16T17:22:10.552Z,996.81
2023-05-16T17:23:09.924Z,996.90
2023-05-16T17:24:09.525Z,996.92
2023-05-16T17:25:09.611Z,996.90
2023-05-16T17:26:09.594Z,996.86
2023-05-16T17:27:10.109Z,996.86
2023-05-16T17:28:42.357Z,996.88
2023-05-16T17:29:36.201Z,996.86
2023-05-16T17:30:10.445Z,996.91
2023-05-16T17:31:09.540Z,996.84
2023-05-16T17:32:09.596Z,996.82
2023-05-16T17:33:09.697Z,996.82
2023-05-16T17:34:09.501Z,996.80
2023-05-16T17:35:09.601Z,996.85
2023-05-16T17:36:09.717Z,996.81
2023-05-16T17:39:52.335Z,996.86
2023-05-16T17:40:52.328Z,996.80
2023-05-16T17:43:25.189Z,996.85
2023-05-16T17:44:25.844Z,996.85
2023-05-16T17:45:25.200Z,996.80
2023-05-16T17:46:25.437Z,996.76
2023-05-16T17:47:25.216Z,996.81
2023-05-16T17:48:24.970Z,996.86
2023-05-16T17:49:26.815Z,996.77
2023-05-16T17:50:26.324Z,996.83
2023-05-16T17:51:26.270Z,996.76
2023-05-16T17:52:26.152Z,996.85
2023-05-16T17:53:27.433Z,996.79
2023-05-16T17:54:26.396Z,996.82
2023-05-16T17:55:26.828Z,996.82
2023-05-16T17:56:26.144Z,996.86
2023-05-16T17:57:26.699Z,996.83
2023-05-16T17:58:26.576Z,996.86
2023-05-16T17:59:27.189Z,996.93
2023-05-16T18:00:27.109Z,996.89
2023-05-16T18:01:26.174Z,996.97
2023-05-16T18:02:28.744Z,996.99
2023-05-16T18:03:26.857Z,996.99
2023-05-16T18:04:26.380Z,996.99
2023-05-16T18:05:27.204Z,997.04
2023-05-16T18:06:26.010Z,996.99
2023-05-16T18:07:26.040Z,997.00
2023-05-16T18:08:26.070Z,996.99
2023-05-16T18:09:25.980Z,996.98
2023-05-16T18:10:29.459Z,997.02
2023-05-16T18:11:26.350Z,997.02
2023-05-16T18:12:26.252Z,996.99
2023-05-16T18:13:25.956Z,996.97
2023-05-16T18:14:26.063Z,996.99
2023-05-16T18:15:26.231Z,997.09
2023-05-16T18:16:25.903Z,997.07
2023-05-16T18:17:25.989Z,997.08
2023-05-16T18:18:26.043Z,997.06
2023-05-16T18:19:26.041Z,997.11
2023-05-16T18:20:26.004Z,997.09
2023-05-16T18:21:25.904Z,997.11
2023-05-16T18:22:26.051Z,997.10
2023-05-16T18:23:26.267Z,997.15
2023-05-16T18:24:26.994Z,997.10
2023-05-16T18:25:26.961Z,997.12
2023-05-16T18:26:26.136Z,997.04
2023-05-16T18:27:26.094Z,997.10
2023-05-16T18:28:25.893Z,997.16
2023-05-16T18:29:26.602Z,997.14
2023-05-16T18:30:26.010Z,997.17
2023-05-16T18:31:25.913Z,997.19
2023-05-16T18:32:25.883Z,997.16
2023-05-16T18:33:25.869Z,997.11
2023-05-16T18:34:25.750Z,997.24
2023-05-16T18:35:26.251Z,997.17
2023-05-16T18:36:25.835Z,997.18
2023-05-16T18:37:25.841Z,997.19
2023-05-16T18:38:32.514Z,997.25
2023-05-16T18:39:26.719Z,997.30
2023-05-16T18:40:26.222Z,997.32
2023-05-16T18:41:25.736Z,997.27
2023-05-16T18:42:25.852Z,997.24
2023-05-16T18:43:25.849Z,997.33
2023-05-16T18:44:25.826Z,997.40
2023-05-16T18:45:26.807Z,997.33
2023-05-16T18:46:25.756Z,997.36
2023-05-16T18:47:25.764Z,997.38
2023-05-16T18:48:25.802Z,997.38
2023-05-16T18:49:25.684Z,997.41
2023-05-16T18:50:26.303Z,997.43
2023-05-16T18:51:25.710Z,997.45
2023-05-16T18:52:25.755Z,997.45
2023-05-16T18:53:25.572Z,997.47
2023-05-16T18:54:25.579Z,997.52
2023-05-16T18:55:25.651Z,997.45
2023-05-16T18:56:25.530Z,997.48
2023-05-16T18:57:25.520Z,997.50
2023-05-16T18:58:25.470Z,997.50
2023-05-16T18:59:25.472Z,997.48
2023-05-16T19:00:25.501Z,997.51
2023-05-16T19:01:25.540Z,997.53
2023-05-16T19:02:37.846Z,997.58
2023-05-16T19:03:26.625Z,997.56
2023-05-16T19:04:25.589Z,997.58
2023-05-16T19:05:25.769Z,997.52
2023-05-16T19:06:25.435Z,997.59
2023-05-16T19:07:25.452Z,997.57
2023-05-16T19:08:27.124Z,997.63
2023-05-16T19:09:26.471Z,997.62
2023-05-16T19:10:25.641Z,997.62
2023-05-16T19:11:25.517Z,997.65
2023-05-16T19:12:25.374Z,997.67
2023-05-16T19:13:25.453Z,997.67
2023-05-16T19:14:25.565Z,997.66
2023-05-16T19:15:25.922Z,997.71
2023-05-16T19:16:28.560Z,997.73
2023-05-16T19:17:25.824Z,997.77
2023-05-16T19:18:26.221Z,997.74
2023-05-16T19:19:27.232Z,997.83
2023-05-16T19:20:25.653Z,997.83
2023-05-16T19:21:26.252Z,997.86
2023-05-16T19:22:34.764Z,997.85
2023-05-16T19:23:29.681Z,997.87
2023-05-16T19:24:25.481Z,997.87
2023-05-16T19:25:25.306Z,997.95
2023-05-16T19:26:25.469Z,997.94
2023-05-16T19:27:26.471Z,997.90
2023-05-16T19:28:25.462Z,997.95
2023-05-16T19:29:25.230Z,997.98
2023-05-16T19:30:25.297Z,997.97
2023-05-16T19:31:27.877Z,997.98
2023-05-16T19:32:25.173Z,998.06
2023-05-16T19:33:25.805Z,998.02
2023-05-16T19:34:26.318Z,997.99
2023-05-16T19:35:25.326Z,998.00
2023-05-16T19:36:26.211Z,998.02
2023-05-16T19:37:25.398Z,998.03
2023-05-16T19:38:25.841Z,998.08
2023-05-16T19:39:25.794Z,998.12
2023-05-16T19:40:25.076Z,998.10
2023-05-16T19:41:25.267Z,998.08
2023-05-16T19:42:25.034Z,998.05
2023-05-16T19:43:25.103Z,998.06
2023-05-16T19:44:25.278Z,998.06
2023-05-16T19:45:25.760Z,998.10
2023-05-16T19:46:25.222Z,998.14
2023-05-16T19:47:25.122Z,998.12
2023-05-16T19:48:25.295Z,998.14
2023-05-16T19:49:26.166Z,998.20
2023-05-16T19:50:25.060Z,998.17
2023-05-16T19:51:40.291Z,998.12
2023-05-16T19:52:27.070Z,998.19
2023-05-16T19:53:25.385Z,998.25
2023-05-16T19:54:25.064Z,998.22
2023-05-16T19:55:25.104Z,998.19
2023-05-16T19:56:25.002Z,998.24
2023-05-16T19:57:25.221Z,998.27
2023-05-16T19:58:24.993Z,998.22
2023-05-16T19:59:25.505Z,998.24
2023-05-16T20:00:24.930Z,998.24
2023-05-16T20:01:25.006Z,998.24
2023-05-16T20:02:24.929Z,998.25
2023-05-16T20:03:25.189Z,998.31
2023-05-16T20:04:25.015Z,998.24
2023-05-16T20:05:24.978Z,998.26
2023-05-16T20:06:24.917Z,998.33
2023-05-16T20:07:24.933Z,998.35
2023-05-16T20:08:24.888Z,998.34
2023-05-16T20:09:25.173Z,998.37
2023-05-16T20:10:24.774Z,998.36
2023-05-16T20:11:24.764Z,998.41
2023-05-16T20:12:24.941Z,998.38
2023-05-16T20:13:25.248Z,998.40
2023-05-16T20:14:25.061Z,998.38
2023-05-16T20:15:24.737Z,998.38
2023-05-16T20:16:24.924Z,998.38
2023-05-16T20:17:24.765Z,998.44
2023-05-16T20:18:24.874Z,998.46
2023-05-16T20:19:25.203Z,998.48
2023-05-16T20:20:25.219Z,998.46
2023-05-16T20:21:25.464Z,998.51
2023-05-16T20:22:25.926Z,998.49